Time;durP1;ratioP1;P1;durP2;ratioP2;P2;SDS_P1;SDS_P2;PMS_P1;PMS_P2;Temp;Humidity;BMP_temperature;BMP_pressure;BME280_temperature;BME280_humidity;BME280_pressure;Samples;Min_cycle;Max_cycle;Signal;HPM_P1;HPM_P2
2022/01/17 00:02:18;;;;;;;19.33;11.98;;;;;;;3.09;92.63;101820.34;6251233;23;20099;-94
2022/01/17 00:09:06;;;;;;;17.48;11.43;;;;;;;3.37;92.56;101846.69;6220519;23;20054;-93
2022/01/17 00:11:45;;;;;;;18.77;12.45;;;;;;;2.98;92.80;101788.00;6219045;23;20023;-94
2022/01/17 00:14:40;;;;;;;20.98;12.50;;;;;;;2.98;92.39;101788.00;6172441;23;20121;-94
2022/01/17 00:17:43;;;;;;;;;;;;;;;3.37;92.19;101855.41;6223924;23;20022;-94
2022/01/17 00:20:34;;;;;;;18.52;11.70;;;;;;;3.21;92.44;101818.66;6219564;23;19974;-93
2022/01/17 00:23:13;;;;;;;;;;;;;;;;;;;;;
2022/01/17 00:33:42;;;;;;;22.13;12.63;;;;;;;3.22;92.01;101839.59;6219452;23;20043;-95
2022/01/17 00:36:59;;;;;;;20.58;12.63;;;;;;;3.18;92.34;101830.84;6199544;23;20024;-94
2022/01/17 00:39:36;;;;;;;21.13;13.00;;;;;;;3.27;92.39;101845.75;6219357;23;20016;-95
2022/01/17 00:42:08;;;;;;;18.20;12.00;;;;;;;3.11;91.78;101805.53;6220877;23;20103;-94
2022/01/17 00:45:02;;;;;;;20.55;12.60;;;;;;;3.40;92.16;101855.44;6221637;23;20123;-95
2022/01/17 00:48:12;;;;;;;21.17;12.45;;;;;;;3.46;91.81;101849.34;6220802;23;20066;-95
2022/01/17 00:51:05;;;;;;;20.83;13.20;;;;;;;3.13;91.56;101808.16;6219670;23;20810;-95
2022/01/17 00:54:02;;;;;;;;;;;;;;;;;;;;;
2022/01/17 00:56:54;;;;;;;21.60;13.10;;;;;;;3.06;92.60;101783.69;6158077;23;20020;-95
2022/01/17 00:59:24;;;;;;;16.95;10.73;;;;;;;2.96;92.51;101773.16;6219345;23;20016;-94
2022/01/17 01:02:12;;;;;;;19.65;12.48;;;;;;;3.01;92.65;101764.44;6216801;23;20444;-94
2022/01/17 01:16:56;;;;;;;24.42;14.05;;;;;;;3.02;92.71;101821.16;6249130;23;20032;-94
2022/01/17 01:19:39;;;;;;;23.45;13.82;;;;;;;2.92;93.90;101826.31;6166815;23;20016;-94
2022/01/17 01:28:50;;;;;;;24.05;14.57;;;;;;;3.11;93.96;101865.72;6186798;23;20056;-94
2022/01/17 01:31:37;;;;;;;23.98;13.80;;;;;;;2.78;93.78;101810.53;6187320;23;20337;-93
2022/01/17 01:34:52;;;;;;;23.92;14.10;;;;;;;3.11;93.83;101872.69;6184448;23;20096;-93
2022/01/17 01:38:10;;;;;;;23.73;14.00;;;;;;;3.18;92.92;101895.41;6186724;23;20017;-94
2022/01/17 01:41:04;;;;;;;27.23;14.35;;;;;;;2.82;92.93;101830.63;6188497;23;20025;-94
2022/01/17 01:43:36;;;;;;;24.15;14.23;;;;;;;2.98;93.52;101868.25;6182404;23;20023;-92
2022/01/17 01:49:39;;;;;;;23.30;14.10;;;;;;;2.85;93.66;101843.69;6255721;23;20102;-94
2022/01/17 01:56:21;;;;;;;25.02;14.50;;;;;;;3.08;93.55;101883.13;6188410;23;20132;-94
2022/01/17 02:03:23;;;;;;;24.95;14.07;;;;;;;3.16;93.27;101886.66;6188417;23;20086;-95
2022/01/17 02:13:13;;;;;;;19.67;10.95;;;;;;;2.71;94.63;101808.72;6221796;23;20088;-94
2022/01/17 02:15:47;;;;;;;25.45;14.73;;;;;;;2.68;94.82;101812.19;6221597;23;20021;-95
2022/01/17 02:18:29;;;;;;;24.98;13.93;;;;;;;2.93;95.07;101865.59;6222539;23;20017;-93
2022/01/17 02:23:41;;;;;;;25.55;14.48;;;;;;;2.76;95.05;101835.78;6221708;23;20013;-93
2022/01/17 02:26:35;;;;;;;25.27;13.40;;;;;;;2.64;94.89;101809.56;6222141;23;20197;-94
2022/01/17 02:29:54;;;;;;;24.33;13.68;;;;;;;2.71;95.40;101813.94;6200507;23;20075;-94
2022/01/17 02:44:33;;;;;;;17.05;10.13;;;;;;;2.86;95.77;101845.47;6222550;23;20099;-94
2022/01/17 02:47:43;;;;;;;22.65;13.55;;;;;;;2.86;95.97;101857.66;6221333;23;20498;-94
2022/01/17 02:50:10;;;;;;;24.15;13.50;;;;;;;2.70;96.48;101835.72;6221732;23;20436;-95
2022/01/17 02:53:16;;;;;;;22.77;12.95;;;;;;;2.75;96.96;101855.84;6226295;23;20328;-94
2022/01/17 03:00:15;;;;;;;24.63;13.50;;;;;;;2.95;95.76;101853.41;6222091;23;20403;-94
2022/01/17 03:10:40;;;;;;;23.10;13.15;;;;;;;3.01;95.18;101844.69;6251320;23;20044;-94
2022/01/17 03:13:12;;;;;;;19.73;10.75;;;;;;;2.85;94.94;101817.53;6224403;23;20075;-93
2022/01/17 03:15:44;;;;;;;21.88;13.18;;;;;;;2.74;94.46;101801.78;6250801;23;20031;-94
2022/01/17 03:19:03;;;;;;;21.60;12.52;;;;;;;2.87;94.98;101800.13;6242892;23;20035;-94
2022/01/17 03:21:32;;;;;;;23.02;13.27;;;;;;;3.05;94.90;101813.31;6250788;23;20451;-94
2022/01/17 03:24:00;;;;;;;25.92;13.60;;;;;;;2.80;95.28;101777.41;6250385;23;20391;-93
2022/01/17 03:26:30;;;;;;;23.10;13.60;;;;;;;2.92;95.08;101800.16;6250302;23;20031;-94
2022/01/17 03:29:00;;;;;;;21.85;12.25;;;;;;;2.83;95.69;101791.38;6223424;23;20022;-94
2022/01/17 03:31:30;;;;;;;23.73;13.52;;;;;;;2.91;95.45;101804.50;6251223;23;20016;-94
2022/01/17 03:34:33;;;;;;;21.25;12.63;;;;;;;3.06;95.77;101841.25;6252098;23;20091;-93
2022/01/17 03:37:02;;;;;;;24.38;13.52;;;;;;;3.08;95.22;101849.13;6253147;23;20404;-93
2022/01/17 03:39:29;;;;;;;19.70;12.00;;;;;;;2.82;94.50;101791.38;6227480;23;20046;-95
2022/01/17 03:42:24;;;;;;;22.23;13.23;;;;;;;3.13;95.21;101844.81;6253441;23;20016;-94
2022/01/17 03:44:52;;;;;;;21.20;13.23;;;;;;;2.74;94.34;101779.97;6229964;23;20024;-95
2022/01/17 03:47:24;;;;;;;24.55;13.05;;;;;;;2.94;94.78;101815.00;6273052;22;20026;-94
2022/01/17 03:50:00;;;;;;;21.98;12.93;;;;;;;2.83;94.88;101806.22;6274746;22;20004;-96
2022/01/17 03:52:27;;;;;;;22.33;12.82;;;;;;;2.92;94.69;101816.72;6248934;22;20020;-94
2022/01/17 03:54:55;;;;;;;21.17;12.55;;;;;;;2.94;94.64;101804.53;6262151;23;20290;-96
2022/01/17 03:57:27;;;;;;;19.58;12.18;;;;;;;2.94;94.59;101799.31;6273718;22;20012;-95
2022/01/17 04:00:23;;;;;;;21.80;12.52;;;;;;;2.88;94.70;101811.47;6269916;23;20031;-94
2022/01/17 04:02:52;;;;;;;21.67;12.13;;;;;;;2.97;94.88;101835.09;6257030;23;20444;-94
2022/01/17 04:05:21;;;;;;;20.63;12.30;;;;;;;2.90;95.42;101813.22;6251782;23;20024;-93
2022/01/17 04:07:51;;;;;;;24.55;12.45;;;;;;;2.78;95.14;101772.16;6252915;23;20020;-94
2022/01/17 04:10:51;;;;;;;21.13;12.45;;;;;;;3.24;94.91;101844.84;6251485;23;20039;-94
2022/01/17 04:13:26;;;;;;;18.10;11.30;;;;;;;3.02;94.38;101825.50;6245932;23;20024;-93
2022/01/17 04:15:56;;;;;;;18.77;11.30;;;;;;;3.02;94.23;101842.09;6250016;23;20455;-94
2022/01/17 04:18:26;;;;;;;18.05;11.27;;;;;;;3.23;94.13;101875.38;6249649;23;20448;-93
2022/01/17 04:20:55;;;;;;;19.48;11.50;;;;;;;3.24;93.93;101876.28;6250068;23;20050;-93
2022/01/17 04:23:22;;;;;;;18.13;11.30;;;;;;;3.08;93.64;101857.84;6249268;23;20100;-94
2022/01/17 04:25:52;;;;;;;18.58;10.75;;;;;;;3.20;93.92;101866.63;6250428;23;20377;-95
2022/01/17 04:28:26;;;;;;;19.98;11.02;;;;;;;3.26;93.23;101866.69;6250337;23;20043;-93
2022/01/17 04:31:17;;;;;;;19.15;10.43;;;;;;;2.93;93.38;101842.03;6250284;23;20039;-93
2022/01/17 04:34:08;;;;;;;18.25;10.65;;;;;;;2.97;93.70;101835.97;6250062;23;20023;-93
2022/01/17 04:36:58;;;;;;;;;;;;;;;3.26;93.97;101885.00;6249366;23;20105;-93
2022/01/17 04:39:25;;;;;;;19.10;10.40;;;;;;;3.26;93.62;101870.19;6248288;23;19988;-93
2022/01/17 04:41:57;;;;;;;20.42;11.80;;;;;;;3.11;93.87;101838.66;6249533;23;20016;-94
2022/01/17 04:47:09;;;;;;;15.98;9.88;;;;;;;3.02;92.81;101813.31;6249605;23;20020;-93
2022/01/17 04:49:38;;;;;;;18.17;10.48;;;;;;;2.88;93.17;101772.22;6250106;23;20035;-93
2022/01/17 04:52:12;;;;;;;17.23;10.43;;;;;;;3.08;93.19;101808.13;6249285;23;20020;-93
2022/01/17 04:54:52;;;;;;;18.15;10.50;;;;;;;3.17;93.04;101810.78;6156747;23;20117;-93
2022/01/17 04:57:22;;;;;;;16.52;10.23;;;;;;;3.27;93.55;101823.94;6166970;23;20022;-94
2022/01/17 04:59:53;;;;;;;19.52;10.63;;;;;;;3.21;94.48;101821.28;6163525;23;20021;-93
2022/01/17 05:02:21;;;;;;;16.30;9.68;;;;;;;2.97;94.02;101783.63;6154812;23;20021;-94
2022/01/17 05:04:51;;;;;;;15.93;9.90;;;;;;;3.11;94.03;101808.16;6154911;23;20021;-94
2022/01/17 05:07:20;;;;;;;17.98;10.60;;;;;;;3.01;94.27;101797.59;6154348;23;20025;-94
2022/01/17 05:09:48;;;;;;;15.95;9.75;;;;;;;3.41;93.81;101859.81;6155910;23;20100;-93
2022/01/17 05:12:15;;;;;;;16.02;9.75;;;;;;;3.02;93.21;101808.06;6178574;23;20078;-94
2022/01/17 05:14:47;;;;;;;17.23;10.60;;;;;;;3.03;92.69;101820.28;6248482;23;20440;-95
2022/01/17 05:20:11;;;;;;;18.15;10.30;;;;;;;3.14;93.79;101849.16;6222866;23;20062;-93
2022/01/17 05:22:41;;;;;;;15.80;10.18;;;;;;;2.94;93.95;101815.00;6247474;23;20387;-94
2022/01/17 05:25:12;;;;;;;15.85;10.07;;;;;;;3.04;94.12;101827.28;6247738;23;20335;-93
2022/01/17 05:27:41;;;;;;;16.00;9.65;;;;;;;3.07;94.23;101844.75;6247762;23;20016;-94
2022/01/17 05:30:14;;;;;;;15.35;9.80;;;;;;;3.23;93.78;101862.31;6224205;23;20016;-95
2022/01/17 05:32:47;;;;;;;16.52;10.05;;;;;;;3.25;93.80;101857.97;6253331;23;20022;-93
2022/01/17 05:35:15;;;;;;;15.88;9.43;;;;;;;3.17;93.63;101838.69;6225081;23;20392;-93
2022/01/17 05:37:47;;;;;;;14.30;9.05;;;;;;;3.14;93.40;101836.97;6264231;23;20072;-95
2022/01/17 05:40:16;;;;;;;14.48;9.13;;;;;;;3.15;93.55;101843.03;6266393;23;20016;-94
2022/01/17 05:42:45;;;;;;;16.33;9.80;;;;;;;3.31;93.57;101823.06;6254250;23;20016;-94
2022/01/17 05:45:14;;;;;;;15.63;9.43;;;;;;;3.51;93.61;101832.78;6248767;23;20348;-93
2022/01/17 05:47:41;;;;;;;14.60;9.40;;;;;;;3.38;92.69;101801.28;6223432;23;20312;-93
2022/01/17 05:50:35;;;;;;;15.85;10.02;;;;;;;3.50;93.18;101822.28;6256676;23;20020;-95
2022/01/17 05:53:03;;;;;;;15.00;9.18;;;;;;;3.27;93.19;101792.53;6270925;23;20035;-93
2022/01/17 05:55:30;;;;;;;16.23;9.55;;;;;;;3.20;93.44;101785.50;6259235;23;20012;-93
2022/01/17 06:01:44;;;;;;;13.98;8.73;;;;;;;3.44;92.72;101830.13;6251379;23;20327;-93
2022/01/17 06:05:12;;;;;;;15.48;9.55;;;;;;;3.59;93.10;101853.78;6225128;23;20063;-93
2022/01/17 06:08:27;;;;;;;14.27;8.55;;;;;;;3.65;92.55;101839.81;6248630;23;20084;-93
2022/01/17 06:10:57;;;;;;;12.65;8.38;;;;;;;3.66;92.26;101852.06;6250084;23;20074;-94
2022/01/17 06:14:04;;;;;;;13.00;8.65;;;;;;;3.36;92.91;101806.53;6237516;23;20027;-93
2022/01/17 06:16:39;;;;;;;14.25;9.15;;;;;;;3.30;93.66;101818.72;6248757;23;20368;-93
2022/01/17 06:19:09;;;;;;;14.23;8.65;;;;;;;3.49;93.23;101855.47;6249269;23;20016;-93
2022/01/17 06:25:35;;;;;;;13.30;8.40;;;;;;;3.46;91.89;101825.78;6249192;23;20378;-93
2022/01/17 06:29:17;;;;;;;16.90;8.65;;;;;;;3.74;92.53;101880.06;6248531;23;20115;-93
2022/01/17 06:32:15;;;;;;;14.00;8.45;;;;;;;3.52;92.07;101847.63;6249510;23;20039;-93
2022/01/17 06:35:23;;;;;;;14.90;8.75;;;;;;;3.36;92.30;101821.34;6157421;23;20018;-93
2022/01/17 06:37:51;;;;;;;14.23;8.82;;;;;;;3.56;92.84;101855.50;6155431;23;20170;-93
2022/01/17 06:40:19;;;;;;;13.40;7.90;;;;;;;3.68;92.32;101873.91;6147880;23;20071;-92
2022/01/17 06:42:50;;;;;;;13.25;8.13;;;;;;;3.49;92.63;101834.50;6149699;23;20021;-93
2022/01/17 06:45:21;;;;;;;13.57;8.73;;;;;;;3.61;92.58;101845.94;6132941;23;20053;-93
2022/01/17 06:47:50;;;;;;;15.00;8.45;;;;;;;3.35;92.75;101803.91;6155208;23;20108;-91
2022/01/17 06:50:21;;;;;;;12.23;7.80;;;;;;;3.81;92.52;101866.09;6146487;23;20076;-91
2022/01/17 06:53:01;;;;;;;11.98;7.85;;;;;;;3.80;92.24;101845.13;6177636;23;20107;-93
2022/01/17 06:55:28;;;;;;;11.90;7.35;;;;;;;3.75;91.97;101839.88;6249688;23;20024;-94
2022/01/17 06:57:55;;;;;;;13.27;7.45;;;;;;;3.70;91.83;101835.50;6257244;23;20054;-94
2022/01/17 07:00:55;;;;;;;12.95;8.02;;;;;;;3.83;92.46;101871.34;6222967;23;20023;-94
2022/01/17 07:03:22;;;;;;;11.95;7.60;;;;;;;3.49;92.51;101802.22;6237782;23;20039;-91
2022/01/17 07:05:49;;;;;;;12.77;7.60;;;;;;;3.78;92.44;101868.69;6239928;23;20020;-91
2022/01/17 07:08:16;;;;;;;11.50;7.85;;;;;;;3.76;92.46;101872.22;6244102;23;20032;-90
2022/01/17 07:10:43;;;;;;;12.73;7.70;;;;;;;3.74;91.81;101859.09;6245167;23;20027;-91
2022/01/17 07:13:10;;;;;;;12.68;7.85;;;;;;;3.96;91.94;101916.81;6244376;23;20383;-90
2022/01/17 07:15:39;;;;;;;13.37;7.83;;;;;;;3.95;91.86;101936.91;6239752;23;20499;-91
2022/01/17 07:18:06;;;;;;;11.82;8.18;;;;;;;3.95;92.25;101939.53;6240739;23;20024;-91
2022/01/17 07:20:36;;;;;;;11.15;7.70;;;;;;;3.98;91.49;101942.16;6244634;23;20082;-90
2022/01/17 07:23:03;;;;;;;12.02;7.40;;;;;;;4.02;91.42;101969.28;6218667;23;20373;-90
2022/01/17 07:25:38;;;;;;;12.38;7.45;;;;;;;3.74;91.54;101923.72;6240414;23;20062;-90
2022/01/17 07:28:09;;;;;;;12.48;7.65;;;;;;;3.82;91.73;101899.28;6238049;23;20091;-90
2022/01/17 07:30:37;;;;;;;12.45;7.55;;;;;;;4.01;91.29;101915.09;6245292;23;20309;-93
2022/01/17 07:33:07;;;;;;;10.82;7.25;;;;;;;3.76;91.32;101888.81;6244632;23;20103;-91
2022/01/17 07:35:38;;;;;;;11.93;7.20;;;;;;;3.62;91.39;101879.13;6244378;23;20047;-91
2022/01/17 07:38:06;;;;;;;12.68;7.57;;;;;;;3.79;91.58;101891.41;6242603;23;20017;-91
2022/01/17 07:40:33;;;;;;;12.45;7.50;;;;;;;3.91;90.95;101900.22;6245945;23;20036;-91
2022/01/17 07:43:03;;;;;;;12.45;7.72;;;;;;;4.05;90.67;101925.63;6248496;23;20226;-90
2022/01/17 07:45:56;;;;;;;;;;;;;;;;;;;;;
2022/01/17 07:51:11;;;;;;;10.68;7.80;;;;;;;4.00;91.23;101916.84;6245967;23;20111;-92
2022/01/17 07:53:38;;;;;;;12.40;7.67;;;;;;;3.73;91.07;101859.97;6244456;23;20452;-92
2022/01/17 07:56:10;;;;;;;12.63;8.32;;;;;;;3.86;90.70;101887.97;6219372;23;20027;-94
2022/01/17 07:58:41;;;;;;;11.43;7.80;;;;;;;3.94;90.68;101893.22;6241608;23;20422;-94
2022/01/17 08:01:15;;;;;;;16.05;7.95;;;;;;;3.81;90.30;101868.72;6246498;23;20023;-94
2022/01/17 08:03:43;;;;;;;12.20;7.57;;;;;;;4.16;90.65;101916.03;6245416;23;20463;-94
2022/01/17 08:06:10;;;;;;;14.20;7.65;;;;;;;4.18;90.70;101927.41;6246756;23;20068;-94
2022/01/17 08:08:37;;;;;;;13.45;7.80;;;;;;;3.82;90.70;101873.09;6245637;23;20087;-93
2022/01/17 08:11:05;;;;;;;12.18;7.85;;;;;;;4.23;91.28;101930.06;6244705;23;20047;-94
2022/01/17 08:13:34;;;;;;;13.93;7.85;;;;;;;4.32;90.40;101945.81;6244588;23;20043;-94
2022/01/17 08:16:02;;;;;;;14.40;8.05;;;;;;;4.38;90.58;101953.72;6244310;23;20016;-94
2022/01/17 08:18:30;;;;;;;12.85;8.05;;;;;;;4.43;89.88;101962.44;6214319;23;20393;-93
2022/01/17 08:20:59;;;;;;;13.98;8.00;;;;;;;4.31;90.04;101945.78;6244913;23;20047;-92
2022/01/17 08:23:25;;;;;;;15.13;7.93;;;;;;;4.43;89.66;101951.94;6243545;23;20022;-92
2022/01/17 08:25:53;;;;;;;14.18;7.65;;;;;;;4.22;89.29;101912.56;6244195;23;20026;-93
2022/01/17 08:28:21;;;;;;;12.55;7.32;;;;;;;4.39;88.49;101924.00;6242161;23;20040;-93
2022/01/17 08:30:48;;;;;;;11.48;7.50;;;;;;;4.30;88.83;101907.31;6217035;23;20020;-93
2022/01/17 08:33:35;;;;;;;14.70;8.10;;;;;;;4.45;89.12;101929.22;6244233;23;20031;-93
2022/01/17 08:36:07;;;;;;;14.00;7.60;;;;;;;4.73;88.42;101945.03;6245164;23;20055;-92
2022/01/17 08:38:50;;;;;;;13.98;7.28;;;;;;;4.42;88.20;101881.13;6220517;23;20027;-93
2022/01/17 08:41:19;;;;;;;13.35;7.38;;;;;;;4.66;88.25;101925.78;6245837;23;20012;-91
2022/01/17 08:43:49;;;;;;;13.20;7.68;;;;;;;4.49;87.76;101893.41;6244870;23;20103;-92
2022/01/17 08:46:18;;;;;;;14.10;8.15;;;;;;;4.82;87.35;101955.56;6245612;23;20020;-93
2022/01/17 08:48:47;;;;;;;11.07;7.28;;;;;;;4.90;86.70;101949.41;6245284;23;20028;-92
2022/01/17 08:51:14;;;;;;;12.73;7.53;;;;;;;4.80;86.56;101941.53;6245740;23;20020;-92
2022/01/17 08:53:40;;;;;;;12.80;6.90;;;;;;;4.89;86.90;101942.41;6239228;23;20351;-93
2022/01/17 08:56:07;;;;;;;12.25;7.32;;;;;;;4.71;87.00;101910.94;6245564;23;20027;-93
2022/01/17 08:58:35;;;;;;;13.13;7.75;;;;;;;4.83;87.27;101939.81;6244798;23;20004;-93
2022/01/17 09:01:15;;;;;;;12.98;7.22;;;;;;;4.50;86.87;101888.16;6245891;23;20014;-93
2022/01/17 09:03:45;;;;;;;11.07;7.32;;;;;;;4.92;86.42;101958.19;6245065;23;20035;-93
2022/01/17 09:06:11;;;;;;;10.93;6.93;;;;;;;4.96;86.00;101973.94;6245843;23;20455;-94
2022/01/17 09:08:39;;;;;;;13.45;7.30;;;;;;;5.00;85.94;101976.56;6243416;23;20526;-94
2022/01/17 09:11:11;;;;;;;14.13;7.35;;;;;;;4.84;86.22;101948.56;6244312;23;20077;-93
2022/01/17 09:13:39;;;;;;;13.18;7.22;;;;;;;4.97;85.80;101976.56;6246171;23;20436;-93
2022/01/17 09:16:08;;;;;;;12.30;7.22;;;;;;;4.93;85.95;101980.06;6245542;23;20042;-94
2022/01/17 09:18:36;;;;;;;11.93;6.90;;;;;;;4.92;85.89;101970.44;6243382;23;20043;-93
2022/01/17 09:21:08;;;;;;;13.55;7.57;;;;;;;4.66;86.18;101933.66;6246263;23;20106;-93
2022/01/17 09:23:38;;;;;;;12.65;7.15;;;;;;;4.63;86.46;101924.91;6245218;23;20017;-95
2022/01/17 09:26:13;;;;;;;12.55;7.90;;;;;;;4.66;86.25;101932.78;6221473;23;20159;-92
2022/01/17 09:28:54;;;;;;;12.02;7.75;;;;;;;4.68;85.95;101928.41;6243015;23;20403;-94
2022/01/17 09:31:27;;;;;;;12.18;7.50;;;;;;;4.67;86.50;101958.16;6220035;23;20020;-94
2022/01/17 09:34:03;;;;;;;13.90;8.23;;;;;;;5.02;86.12;102016.84;6246018;23;20020;-92
2022/01/17 09:36:34;;;;;;;11.40;6.97;;;;;;;4.90;86.76;102006.28;6253172;23;20874;-93
2022/01/17 09:39:07;;;;;;;12.57;7.35;;;;;;;4.98;86.13;102015.06;6243338;23;20020;-92
2022/01/17 09:41:35;;;;;;;13.20;8.30;;;;;;;5.03;86.26;102025.59;6246755;23;20016;-94
2022/01/17 09:44:16;;;;;;;;;;;;;;;;;;;;;
2022/01/17 09:46:48;;;;;;;11.60;7.63;;;;;;;4.81;86.12;101998.41;6245146;23;20020;-93
2022/01/17 09:49:24;;;;;;;12.85;6.97;;;;;;;4.94;85.54;102010.69;6244382;23;20020;-92
2022/01/17 09:54:37;;;;;;;14.63;7.00;;;;;;;5.19;84.79;102009.88;6244142;23;20435;-93
2022/01/17 09:57:06;;;;;;;12.20;7.78;;;;;;;5.15;84.86;101997.59;6244860;23;20024;-91
2022/01/17 09:59:38;;;;;;;;;;;;;;;5.45;84.44;102027.38;6250922;23;20035;-93
2022/01/17 10:02:07;;;;;;;10.85;7.20;;;;;;;5.28;83.83;102003.72;6227700;23;19939;-92
2022/01/17 10:04:39;;;;;;;12.50;7.20;;;;;;;5.39;84.16;102032.63;6259311;23;20051;-92
2022/01/17 10:07:06;;;;;;;;;;;;;;;5.57;83.79;102049.25;6242707;23;20083;-93
2022/01/17 10:09:43;;;;;;;11.07;6.90;;;;;;;5.63;83.11;102044.00;6242142;23;19922;-93
2022/01/17 10:12:15;;;;;;;12.82;6.93;;;;;;;5.33;83.00;101995.84;6216201;23;20012;-92
2022/01/17 10:14:59;;;;;;;11.95;6.93;;;;;;;5.63;82.75;102038.75;6243164;23;20026;-94
2022/01/17 10:18:01;;;;;;;11.93;7.05;;;;;;;5.72;82.76;102024.72;6242172;23;20034;-94
2022/01/17 10:20:55;;;;;;;12.15;6.70;;;;;;;5.46;82.42;101982.72;6203303;23;20331;-92
2022/01/17 10:34:59;;;;;;;12.48;6.95;;;;;;;5.31;82.12;101960.84;6246501;23;20028;-95
2022/01/17 10:38:54;;;;;;;9.95;6.15;;;;;;;5.59;82.32;102023.88;6238326;23;20038;-93
2022/01/17 10:41:54;;;;;;;10.30;6.35;;;;;;;5.45;82.37;101993.22;6213819;23;20059;-93
2022/01/17 10:44:36;;;;;;;10.45;6.75;;;;;;;5.50;82.05;102012.50;6248633;23;20016;-94
2022/01/17 10:47:30;;;;;;;11.38;7.00;;;;;;;5.47;81.71;101992.34;6240882;23;20028;-94
2022/01/17 10:50:04;;;;;;;13.18;7.40;;;;;;;5.52;81.98;102008.97;6249434;23;20020;-93
2022/01/17 10:52:47;;;;;;;11.10;6.82;;;;;;;5.48;82.62;101980.09;6244291;23;20142;-93
2022/01/17 10:55:35;;;;;;;12.07;7.03;;;;;;;5.63;81.60;102007.22;6231700;23;20459;-94
2022/01/17 10:58:11;;;;;;;12.63;7.28;;;;;;;5.77;81.24;102024.72;6241556;23;20090;-93
2022/01/17 11:00:41;;;;;;;12.68;7.30;;;;;;;5.46;81.25;101960.81;6223390;23;20023;-93
2022/01/17 11:03:27;;;;;;;11.63;7.55;;;;;;;5.64;81.17;101993.22;6252169;23;20028;-94
2022/01/17 11:05:56;;;;;;;14.45;8.27;;;;;;;5.73;81.03;101991.44;6223878;23;20035;-93
2022/01/17 11:08:42;;;;;;;12.27;7.03;;;;;;;5.59;80.53;101936.25;6208742;23;20032;-93
2022/01/17 11:11:12;;;;;;;11.57;7.03;;;;;;;5.93;81.15;101990.56;6247110;23;20035;-91
2022/01/17 11:13:48;;;;;;;11.20;6.78;;;;;;;5.91;80.36;101987.03;6244540;23;20044;-91
2022/01/17 11:16:19;;;;;;;10.38;6.90;;;;;;;6.10;79.92;102000.16;6250818;23;20023;-92
2022/01/17 11:18:57;;;;;;;12.15;7.18;;;;;;;5.93;79.87;101969.53;6252273;23;20044;-93
2022/01/17 11:21:38;;;;;;;12.90;7.13;;;;;;;5.79;79.22;101955.50;6257316;23;20020;-91
2022/01/17 11:24:11;;;;;;;11.98;6.57;;;;;;;6.06;78.75;101980.88;6226439;23;20020;-92
2022/01/17 11:26:42;;;;;;;10.35;6.65;;;;;;;6.05;78.33;101984.38;6249301;23;20082;-93
2022/01/17 11:29:12;;;;;;;10.45;7.00;;;;;;;6.05;78.96;101997.53;6247504;23;20423;-93
2022/01/17 11:31:41;;;;;;;13.05;7.20;;;;;;;5.79;78.82;101950.25;6254390;23;20562;-92
2022/01/17 11:34:13;;;;;;;15.00;7.38;;;;;;;5.92;79.37;101973.03;6252465;23;20086;-92
2022/01/17 11:36:45;;;;;;;11.38;7.13;;;;;;;5.74;79.33;101946.75;6224947;23;20058;-93
2022/01/17 11:39:15;;;;;;;12.82;7.57;;;;;;;5.85;79.38;101962.47;6229333;23;20391;-92
2022/01/17 11:41:49;;;;;;;12.20;6.57;;;;;;;6.15;79.29;102004.50;6258576;23;20016;-92
2022/01/17 11:44:34;;;;;;;12.30;7.38;;;;;;;6.03;78.48;101970.34;6257460;23;20031;-93
2022/01/17 11:47:50;;;;;;;11.60;6.60;;;;;;;6.10;78.47;101982.63;4737293;27;9845817;-93
2022/01/17 11:50:36;;;;;;;11.13;6.57;;;;;;;6.29;78.17;102002.72;5086772;28;20052;-93
2022/01/17 11:53:17;;;;;;;14.80;6.82;;;;;;;6.35;78.03;101999.16;5083320;28;20055;-94
2022/01/17 11:55:46;;;;;;;12.77;6.50;;;;;;;6.25;78.01;101964.16;5083492;28;20048;-91
2022/01/17 11:58:19;;;;;;;14.07;6.97;;;;;;;6.42;77.72;101963.19;5077479;28;20390;-93
2022/01/17 12:00:48;;;;;;;14.70;7.40;;;;;;;6.14;77.38;101909.84;5077027;28;20041;-93
2022/01/17 12:03:19;;;;;;;15.40;6.60;;;;;;;6.46;77.42;101972.78;5082223;28;20044;-92
2022/01/17 12:05:46;;;;;;;;;;;;;;;6.55;77.04;101964.88;5082995;28;20060;-93
2022/01/17 12:08:20;;;;;;;16.92;7.00;;;;;;;6.20;76.46;101888.75;5076859;28;19970;-91
2022/01/17 12:11:02;;;;;;;10.43;6.43;;;;;;;6.59;76.49;101933.28;5085168;28;20048;-92
2022/01/17 12:13:40;;;;;;;13.85;6.85;;;;;;;6.47;76.88;101924.56;5072309;28;20059;-92
2022/01/17 12:16:36;;;;;;;11.48;6.40;;;;;;;6.18;77.42;101915.06;5075199;28;20045;-92
2022/01/17 12:19:07;;;;;;;12.13;6.78;;;;;;;6.38;77.12;101971.97;5078622;28;20087;-93
2022/01/17 12:21:53;;;;;;;;;;;;;;;;;;;;;
2022/01/17 12:24:30;;;;;;;10.75;6.75;;;;;;;6.38;76.73;101964.09;5081310;28;20052;-92
2022/01/17 12:26:57;;;;;;;12.30;6.68;;;;;;;6.56;77.18;101975.41;5079565;28;20075;-92
2022/01/17 12:30:07;;;;;;;11.25;6.68;;;;;;;6.55;76.85;101965.75;5084870;28;20048;-92
2022/01/17 12:32:45;;;;;;;10.57;6.50;;;;;;;6.63;76.78;101973.59;5082367;28;20552;-93
2022/01/17 12:35:17;;;;;;;13.35;6.60;;;;;;;6.73;75.99;101958.63;5086382;28;20071;-92
2022/01/17 12:38:07;;;;;;;14.02;6.70;;;;;;;6.59;76.05;101917.47;5087902;28;20048;-92
2022/01/17 12:40:57;;;;;;;13.60;7.20;;;;;;;6.64;75.87;101909.53;5086077;28;20074;-92
2022/01/17 12:43:29;;;;;;;11.75;6.82;;;;;;;6.85;75.57;101937.47;5094299;28;20048;-94
2022/01/17 12:46:11;;;;;;;12.55;7.15;;;;;;;6.93;74.83;101920.72;5080975;28;20382;-91
2022/01/17 12:48:54;;;;;;;13.15;7.35;;;;;;;6.91;75.14;101922.53;5087020;28;20093;-93
2022/01/17 12:51:23;;;;;;;14.07;7.25;;;;;;;6.84;74.60;101918.16;5093756;28;20056;-93
2022/01/17 12:53:51;;;;;;;14.82;7.30;;;;;;;6.89;74.56;101929.56;5090429;28;20083;-93
2022/01/17 12:56:32;;;;;;;13.13;6.70;;;;;;;6.97;74.58;101940.00;5087116;28;20040;-92
2022/01/17 12:59:02;;;;;;;16.48;7.50;;;;;;;6.89;75.04;101928.69;5070262;28;20044;-93
2022/01/17 13:01:32;;;;;;;9.82;6.10;;;;;;;7.12;74.67;101978.53;5084955;28;20086;-93
2022/01/17 13:04:06;;;;;;;11.20;6.87;;;;;;;7.01;74.46;101965.44;5077960;28;20071;-92
2022/01/17 13:06:51;;;;;;;12.43;6.25;;;;;;;7.05;74.52;101972.47;5073387;28;20495;-92
2022/01/17 13:09:24;;;;;;;11.00;6.57;;;;;;;6.73;74.88;101933.19;5077770;28;20063;-93
2022/01/17 13:11:57;;;;;;;11.23;6.78;;;;;;;6.91;74.44;101976.94;5079659;28;20076;-93
2022/01/17 13:14:24;;;;;;;13.30;6.63;;;;;;;6.97;75.27;101982.16;5072194;28;20049;-92
2022/01/17 13:16:54;;;;;;;12.00;7.38;;;;;;;6.82;75.55;101962.06;5069308;28;20136;-93
2022/01/17 13:19:23;;;;;;;10.98;6.60;;;;;;;6.75;75.37;101948.97;5064145;28;20061;-94
2022/01/17 13:21:54;;;;;;;13.05;7.03;;;;;;;6.73;75.84;101946.34;5066431;28;20153;-93
2022/01/17 13:24:35;;;;;;;12.65;7.68;;;;;;;6.75;76.12;101926.16;5067278;28;20131;-93
2022/01/17 13:27:11;;;;;;;15.00;7.63;;;;;;;6.90;75.82;101959.41;5073174;28;20043;-93
2022/01/17 13:29:46;;;;;;;13.23;7.60;;;;;;;6.89;76.81;101965.53;5059530;28;20498;-91
2022/01/17 13:32:14;;;;;;;16.55;8.68;;;;;;;6.92;76.86;101971.69;5064372;28;20045;-92
2022/01/17 13:34:42;;;;;;;13.37;8.10;;;;;;;6.81;77.23;101959.44;5064545;28;20045;-92
2022/01/17 13:37:15;;;;;;;12.38;7.25;;;;;;;6.62;78.21;101958.69;5073033;28;20479;-93
2022/01/17 13:39:52;;;;;;;13.82;7.57;;;;;;;6.68;78.04;101946.38;5061203;28;20087;-93
2022/01/17 13:43:01;;;;;;;15.15;8.27;;;;;;;6.48;78.75;101935.06;5058872;28;20055;-93
2022/01/17 13:45:46;;;;;;;15.05;7.97;;;;;;;6.49;78.88;101933.31;5072113;28;20597;-93
2022/01/17 13:48:25;;;;;;;14.73;8.13;;;;;;;6.32;78.66;101918.50;5087178;28;20067;-93
2022/01/17 13:51:01;;;;;;;15.32;7.93;;;;;;;6.48;79.03;101944.72;5098656;28;20052;-92
2022/01/17 13:53:34;;;;;;;13.43;8.23;;;;;;;6.68;79.57;101985.84;5089178;28;20047;-93
2022/01/17 13:56:18;;;;;;;11.77;7.70;;;;;;;6.70;79.52;101977.94;5087659;28;20048;-93
2022/01/17 13:58:59;;;;;;;14.75;8.32;;;;;;;6.35;79.89;101904.44;5082742;28;20110;-93
2022/01/17 14:01:48;;;;;;;12.43;8.13;;;;;;;6.49;79.88;101923.66;5089593;28;20091;-93
2022/01/17 14:04:35;;;;;;;17.92;9.40;;;;;;;6.61;80.48;101951.69;5089603;28;20107;-93
2022/01/17 14:07:30;;;;;;;15.32;9.40;;;;;;;6.30;81.33;101919.38;5090391;28;20082;-93